createdAt,value
2022-12-23T00:02:49.075Z,11.60
2022-12-23T00:05:54.111Z,11.70
2022-12-23T00:08:59.391Z,11.80
2022-12-23T00:12:20.038Z,11.90
2022-12-23T00:15:22.953Z,11.90
2022-12-23T00:18:25.775Z,11.90
2022-12-23T00:21:29.999Z,11.90
2022-12-23T00:24:32.836Z,11.90
2022-12-23T00:27:37.649Z,11.90
2022-12-23T00:30:47.200Z,11.90
2022-12-23T00:33:53.484Z,11.90
2022-12-23T00:36:57.761Z,11.90
2022-12-23T00:40:18.154Z,11.90
2022-12-23T00:43:21.036Z,11.80
2022-12-23T00:46:24.005Z,11.80
2022-12-23T00:49:43.889Z,11.70
2022-12-23T00:52:48.079Z,11.70
2022-12-23T00:55:51.805Z,11.60
2022-12-23T00:58:54.762Z,11.60
2022-12-23T01:02:15.103Z,11.70
2022-12-23T01:05:35.707Z,11.60
2022-12-23T01:08:40.639Z,11.50
2022-12-23T01:11:43.599Z,11.40
2022-12-23T01:14:46.802Z,11.50
2022-12-23T01:17:49.698Z,11.50
2022-12-23T01:20:52.576Z,11.40
2022-12-23T01:23:56.981Z,11.40
2022-12-23T01:26:59.952Z,11.50
2022-12-23T01:30:02.851Z,11.40
2022-12-23T01:33:05.991Z,11.40
2022-12-23T01:36:10.082Z,11.40
2022-12-23T01:39:14.317Z,11.30
2022-12-23T01:42:45.549Z,11.10
2022-12-23T01:45:48.543Z,11.10
2022-12-23T01:48:53.885Z,11.10
2022-12-23T01:51:56.721Z,11.00
2022-12-23T01:55:01.049Z,10.90
2022-12-23T01:58:10.921Z,10.90
2022-12-23T02:01:31.812Z,10.90
2022-12-23T02:04:34.800Z,10.80
2022-12-23T02:07:55.583Z,10.80
2022-12-23T02:11:36.987Z,10.70
2022-12-23T02:15:22.191Z,10.70
2022-12-23T02:18:50.623Z,10.70
2022-12-23T02:22:26.719Z,10.90
2022-12-23T02:25:53.922Z,10.90
2022-12-23T02:29:22.868Z,10.80
2022-12-23T02:32:33.879Z,11.00
2022-12-23T02:35:44.954Z,11.00
2022-12-23T02:38:57.402Z,11.00
2022-12-23T02:42:07.459Z,11.00
2022-12-23T02:45:13.113Z,11.00
2022-12-23T02:48:22.291Z,10.90
2022-12-23T02:51:30.094Z,11.00
2022-12-23T02:54:37.933Z,10.90
2022-12-23T02:57:45.599Z,11.00
2022-12-23T03:00:49.884Z,11.10
2022-12-23T03:03:54.190Z,11.20
2022-12-23T03:07:01.722Z,11.10
2022-12-23T03:10:16.288Z,11.20
2022-12-23T03:13:29.351Z,11.20
2022-12-23T03:16:43.383Z,11.20
2022-12-23T03:19:53.747Z,11.10
2022-12-23T03:23:02.616Z,11.20
2022-12-23T03:26:12.702Z,11.10
2022-12-23T03:29:19.626Z,11.30
2022-12-23T03:32:24.682Z,11.30
2022-12-23T03:35:33.719Z,11.20
2022-12-23T03:38:41.095Z,11.20
2022-12-23T03:41:49.861Z,11.30
2022-12-23T03:45:27.829Z,11.40
2022-12-23T03:48:23.723Z,11.30
2022-12-23T03:51:33.884Z,11.30
2022-12-23T03:54:41.456Z,11.30
2022-12-23T03:57:49.602Z,11.30
2022-12-23T04:01:02.381Z,11.50
2022-12-23T04:04:10.384Z,11.40
2022-12-23T04:07:19.327Z,11.40
2022-12-23T04:10:23.648Z,11.50
2022-12-23T04:13:27.920Z,11.60
2022-12-23T04:16:31.193Z,11.60
2022-12-23T04:19:34.167Z,11.50
2022-12-23T04:22:39.535Z,11.50
2022-12-23T04:25:42.382Z,11.60
2022-12-23T04:28:45.233Z,11.80
2022-12-23T04:31:48.167Z,11.70
2022-12-23T04:34:51.076Z,11.60
2022-12-23T04:37:55.292Z,11.50
2022-12-23T04:40:58.147Z,11.50
2022-12-23T04:44:00.980Z,11.60
2022-12-23T04:47:03.980Z,11.80
2022-12-23T04:50:08.170Z,11.80
2022-12-23T04:53:12.351Z,11.80
2022-12-23T04:56:15.197Z,11.70
2022-12-23T04:59:18.094Z,11.70
2022-12-23T05:02:21.126Z,11.50
2022-12-23T05:05:24.107Z,11.70
2022-12-23T05:08:28.461Z,11.80
2022-12-23T05:11:35.888Z,11.90
2022-12-23T05:14:41.428Z,11.80
2022-12-23T05:17:44.257Z,11.90
2022-12-23T05:20:47.137Z,11.90
2022-12-23T05:23:51.329Z,11.90
2022-12-23T05:26:59.644Z,11.80
2022-12-23T05:30:02.841Z,12.00
2022-12-23T05:33:05.835Z,12.00
2022-12-23T05:36:09.773Z,12.00
2022-12-23T05:39:14.013Z,11.90
2022-12-23T05:42:19.408Z,12.00
2022-12-23T05:45:22.437Z,12.10
2022-12-23T05:48:25.634Z,12.10
2022-12-23T05:51:28.504Z,12.20
2022-12-23T05:54:32.684Z,12.20
2022-12-23T05:57:35.606Z,12.00
2022-12-23T06:00:39.116Z,12.00
2022-12-23T06:03:42.104Z,12.10
2022-12-23T06:06:45.011Z,11.90
2022-12-23T06:09:49.180Z,12.00
2022-12-23T06:12:52.023Z,12.00
2022-12-23T06:15:54.891Z,12.00
2022-12-23T06:18:57.750Z,12.10
2022-12-23T06:22:00.630Z,12.10
2022-12-23T06:25:05.598Z,12.00
2022-12-23T06:28:08.629Z,12.10
2022-12-23T06:31:11.683Z,12.10
2022-12-23T06:34:14.594Z,12.20
2022-12-23T06:37:17.445Z,12.40
2022-12-23T06:40:21.636Z,12.20
2022-12-23T06:43:24.613Z,12.30
2022-12-23T06:46:27.508Z,12.20
2022-12-23T06:49:30.423Z,12.10
2022-12-23T06:52:33.287Z,12.20
2022-12-23T06:55:37.482Z,12.20
2022-12-23T06:58:40.319Z,12.30
2022-12-23T07:01:43.367Z,12.40
2022-12-23T07:04:46.400Z,12.30
2022-12-23T07:07:49.523Z,12.50
2022-12-23T07:10:58.705Z,12.40
2022-12-23T07:14:01.597Z,12.50
2022-12-23T07:17:04.472Z,12.30
2022-12-23T07:20:08.640Z,12.40
2022-12-23T07:23:11.534Z,12.40
2022-12-23T07:26:15.753Z,12.40
2022-12-23T07:29:18.932Z,12.50
2022-12-23T07:32:21.824Z,12.50
2022-12-23T07:35:24.720Z,12.60
2022-12-23T07:38:27.632Z,12.70
2022-12-23T07:41:31.860Z,12.50
2022-12-23T07:44:34.933Z,12.50
2022-12-23T07:47:37.782Z,12.50
2022-12-23T07:50:40.650Z,12.30
2022-12-23T07:53:44.002Z,12.50
2022-12-23T07:56:48.230Z,12.50
2022-12-23T07:59:51.265Z,12.60
2022-12-23T08:02:54.277Z,12.70
2022-12-23T08:06:01.857Z,12.60
2022-12-23T08:09:06.527Z,12.70
2022-12-23T08:12:10.732Z,12.70
2022-12-23T08:15:13.654Z,12.70
2022-12-23T08:18:16.527Z,12.70
2022-12-23T08:21:20.245Z,12.70
2022-12-23T08:24:23.152Z,12.80
2022-12-23T08:27:27.476Z,12.80
2022-12-23T08:30:30.427Z,12.80
2022-12-23T08:33:33.757Z,12.80
2022-12-23T08:36:39.947Z,12.70
2022-12-23T08:39:43.717Z,12.70
2022-12-23T08:42:47.972Z,12.80
2022-12-23T08:45:50.952Z,12.70
2022-12-23T08:48:54.154Z,12.70
2022-12-23T08:51:57.026Z,12.80
2022-12-23T08:55:00.036Z,12.70
2022-12-23T08:58:04.324Z,12.80
2022-12-23T09:01:09.518Z,12.80
2022-12-23T09:04:12.444Z,12.90
2022-12-23T09:07:15.352Z,12.80
2022-12-23T09:10:18.311Z,12.80
2022-12-23T09:13:30.872Z,12.70
2022-12-23T09:16:38.604Z,12.80
2022-12-23T09:19:42.450Z,12.90
2022-12-23T09:22:47.681Z,12.90
2022-12-23T09:25:50.555Z,13.00
2022-12-23T09:28:55.005Z,13.10
2022-12-23T09:31:57.939Z,13.10
2022-12-23T09:35:00.912Z,13.20
2022-12-23T09:38:03.950Z,13.20
2022-12-23T09:41:16.485Z,13.20
2022-12-23T09:44:35.923Z,13.20
2022-12-23T09:47:39.261Z,13.20
2022-12-23T09:50:43.948Z,13.30
2022-12-23T09:53:55.068Z,13.20
2022-12-23T09:56:59.901Z,13.30
2022-12-23T10:00:11.967Z,13.40
2022-12-23T10:03:21.928Z,13.40
2022-12-23T10:06:28.503Z,13.40
2022-12-23T10:09:33.757Z,13.10
2022-12-23T10:12:40.643Z,13.30
2022-12-23T10:15:49.171Z,13.40
2022-12-23T10:18:58.084Z,13.40
2022-12-23T10:22:06.147Z,13.20
2022-12-23T10:25:18.811Z,13.30
2022-12-23T10:28:21.700Z,13.40
2022-12-23T10:31:41.476Z,13.40
2022-12-23T10:34:53.492Z,13.40
2022-12-23T10:38:00.241Z,13.30
2022-12-23T10:41:10.047Z,13.30
2022-12-23T10:44:39.698Z,13.40
2022-12-23T10:47:52.736Z,13.40
2022-12-23T10:51:02.208Z,13.30
2022-12-23T10:54:09.652Z,13.40
2022-12-23T10:57:15.455Z,13.40
2022-12-23T11:00:22.272Z,13.40
2022-12-23T11:03:30.015Z,13.40
2022-12-23T11:06:37.479Z,13.40
2022-12-23T11:09:45.140Z,13.50
2022-12-23T11:12:50.327Z,13.50
2022-12-23T11:15:53.597Z,13.60
2022-12-23T11:19:01.057Z,13.70
2022-12-23T11:22:03.968Z,13.60
2022-12-23T11:25:26.800Z,13.50
2022-12-23T11:28:30.563Z,13.60
2022-12-23T11:31:36.597Z,13.60
2022-12-23T11:34:46.491Z,13.70
2022-12-23T11:37:49.415Z,13.70
2022-12-23T11:40:52.388Z,13.70
2022-12-23T11:43:59.610Z,13.70
2022-12-23T11:47:20.290Z,13.60
2022-12-23T11:50:32.266Z,13.60
2022-12-23T11:53:36.649Z,13.70
2022-12-23T11:56:41.438Z,13.70
2022-12-23T11:59:48.848Z,13.80
2022-12-23T12:02:54.248Z,13.70
2022-12-23T12:06:00.829Z,13.70
2022-12-23T12:09:06.824Z,13.70
2022-12-23T12:12:17.409Z,13.70
2022-12-23T12:15:28.142Z,13.80
2022-12-23T12:18:31.940Z,13.80
2022-12-23T12:21:39.688Z,13.70
2022-12-23T12:24:47.217Z,13.50
2022-12-23T12:27:57.279Z,13.50
2022-12-23T12:31:05.796Z,13.60
2022-12-23T12:34:25.444Z,13.60
2022-12-23T12:37:37.073Z,13.60
2022-12-23T12:40:44.486Z,13.60
2022-12-23T12:43:52.502Z,13.60
2022-12-23T12:47:15.917Z,13.60
2022-12-23T12:50:30.203Z,13.50
2022-12-23T12:53:36.933Z,13.40
2022-12-23T12:56:46.370Z,13.30
2022-12-23T12:59:51.723Z,13.20
2022-12-23T13:03:21.714Z,13.20
2022-12-23T13:06:34.585Z,13.20
2022-12-23T13:09:52.300Z,13.30
2022-12-23T13:13:04.206Z,13.30
2022-12-23T13:16:18.109Z,13.10
2022-12-23T13:19:30.369Z,13.20
2022-12-23T13:22:34.628Z,13.20
2022-12-23T13:25:43.435Z,13.30
2022-12-23T13:28:52.647Z,13.20
2022-12-23T13:32:03.579Z,13.20
2022-12-23T13:35:20.654Z,13.40
2022-12-23T13:38:51.689Z,13.40
2022-12-23T13:42:04.817Z,13.40
2022-12-23T13:45:16.373Z,13.30
2022-12-23T13:48:34.382Z,13.40
2022-12-23T13:51:44.902Z,13.40
2022-12-23T13:54:57.596Z,13.40
2022-12-23T13:58:10.378Z,13.40
2022-12-23T14:01:35.512Z,13.40
2022-12-23T14:04:57.831Z,13.30
2022-12-23T14:08:02.582Z,13.40
2022-12-23T14:11:13.503Z,13.50
2022-12-23T14:14:24.563Z,13.50
2022-12-23T14:17:36.136Z,13.40
2022-12-23T14:20:50.231Z,13.50
2022-12-23T14:24:10.010Z,13.40
2022-12-23T14:27:36.475Z,13.50
2022-12-23T14:30:45.894Z,13.50
2022-12-23T14:33:49.522Z,13.40
2022-12-23T14:37:17.168Z,13.30
2022-12-23T14:41:05.208Z,13.40
2022-12-23T14:44:21.180Z,13.20
2022-12-23T14:47:34.221Z,13.10
2022-12-23T14:50:40.822Z,13.20
2022-12-23T14:54:16.981Z,13.20
2022-12-23T14:57:28.758Z,13.30
2022-12-23T15:00:32.547Z,13.30
2022-12-23T15:03:45.832Z,13.30
2022-12-23T15:06:51.990Z,13.30
2022-12-23T15:10:00.949Z,13.30
2022-12-23T15:13:06.191Z,13.40
2022-12-23T15:16:17.772Z,13.50
2022-12-23T15:19:24.906Z,13.40
2022-12-23T15:22:32.765Z,13.40
2022-12-23T15:25:40.664Z,13.50
2022-12-23T15:28:44.477Z,13.50
2022-12-23T15:31:51.666Z,13.30
2022-12-23T15:35:00.922Z,13.40
2022-12-23T15:38:04.184Z,13.40
2022-12-23T15:41:16.328Z,13.40
2022-12-23T15:44:23.185Z,13.40
2022-12-23T15:47:30.147Z,13.40
2022-12-23T15:50:41.576Z,13.40
2022-12-23T15:53:47.736Z,13.30
2022-12-23T15:56:54.090Z,13.40
2022-12-23T15:59:58.252Z,13.30
2022-12-23T16:03:03.783Z,13.30
2022-12-23T16:06:16.428Z,13.20
2022-12-23T16:09:34.603Z,13.10
2022-12-23T16:12:45.490Z,13.10
2022-12-23T16:15:49.096Z,13.00
2022-12-23T16:18:52.379Z,13.10
2022-12-23T16:21:57.128Z,13.10
2022-12-23T16:25:08.083Z,13.10
2022-12-23T16:28:18.046Z,13.00
2022-12-23T16:31:22.200Z,12.80
2022-12-23T16:34:25.315Z,12.90
2022-12-23T16:37:29.725Z,12.80
2022-12-23T16:40:32.971Z,12.90
2022-12-23T16:43:36.001Z,12.70
2022-12-23T16:46:43.715Z,12.80
2022-12-23T16:49:46.769Z,12.80
2022-12-23T16:52:51.407Z,12.80
2022-12-23T16:56:00.328Z,12.90
2022-12-23T16:59:04.533Z,12.80
2022-12-23T17:02:19.590Z,12.80
2022-12-23T17:05:24.171Z,12.70
2022-12-23T17:08:28.578Z,12.80
2022-12-23T17:11:38.105Z,12.90
2022-12-23T17:14:41.134Z,12.90
2022-12-23T17:17:44.174Z,12.80
2022-12-23T17:20:48.536Z,12.90
2022-12-23T17:23:54.728Z,12.90
2022-12-23T17:26:58.295Z,13.00
2022-12-23T17:30:01.427Z,13.00
2022-12-23T17:33:04.807Z,13.00
2022-12-23T17:36:08.184Z,13.00
2022-12-23T17:39:12.785Z,12.90
2022-12-23T17:42:23.300Z,13.00
2022-12-23T17:45:31.010Z,12.80
2022-12-23T17:48:34.156Z,12.90
2022-12-23T17:51:38.711Z,12.90
2022-12-23T17:54:43.536Z,13.00
2022-12-23T17:57:46.708Z,13.10
2022-12-23T18:00:49.818Z,13.10
2022-12-23T18:03:53.637Z,13.10
2022-12-23T18:06:56.750Z,13.00
2022-12-23T18:10:01.193Z,13.00
2022-12-23T18:13:08.027Z,13.00
2022-12-23T18:16:13.675Z,13.00
2022-12-23T18:19:19.425Z,13.00
2022-12-23T18:22:25.500Z,13.10
2022-12-23T18:25:29.906Z,13.10
2022-12-23T18:28:33.088Z,13.00
2022-12-23T18:31:37.715Z,13.10
2022-12-23T18:34:40.889Z,13.10
2022-12-23T18:37:43.951Z,13.10
2022-12-23T18:40:49.737Z,13.20
2022-12-23T18:43:53.424Z,13.20
2022-12-23T18:46:56.658Z,13.20
2022-12-23T18:49:59.769Z,13.20
2022-12-23T18:53:03.635Z,13.30
2022-12-23T18:56:11.210Z,13.30
2022-12-23T18:59:22.525Z,13.30
2022-12-23T19:02:30.510Z,13.30
2022-12-23T19:05:33.883Z,13.30
2022-12-23T19:08:38.540Z,13.30
2022-12-23T19:11:43.023Z,13.40
2022-12-23T19:14:46.321Z,13.50
2022-12-23T19:17:50.348Z,13.40
2022-12-23T19:20:53.387Z,13.40
2022-12-23T19:23:57.943Z,13.50
2022-12-23T19:27:02.398Z,13.40
2022-12-23T19:30:06.786Z,13.40
2022-12-23T19:33:11.302Z,13.40
2022-12-23T19:36:16.464Z,13.30
2022-12-23T19:39:22.374Z,13.30
2022-12-23T19:42:26.978Z,13.40
2022-12-23T19:45:30.569Z,13.40
2022-12-23T19:48:33.955Z,13.40
2022-12-23T19:51:37.123Z,13.30
2022-12-23T19:54:40.276Z,13.40
2022-12-23T19:57:44.809Z,13.20
2022-12-23T20:00:47.980Z,13.20
2022-12-23T20:03:52.386Z,13.40
2022-12-23T20:06:56.275Z,13.40
2022-12-23T20:09:59.475Z,13.50
2022-12-23T20:13:03.992Z,13.40
2022-12-23T20:16:08.494Z,13.40
2022-12-23T20:19:12.523Z,13.30
2022-12-23T20:22:15.834Z,13.30
2022-12-23T20:25:19.176Z,13.30
2022-12-23T20:28:23.894Z,13.40
2022-12-23T20:31:28.704Z,13.50
2022-12-23T20:34:38.433Z,13.50
2022-12-23T20:37:42.655Z,13.40
2022-12-23T20:40:46.124Z,13.40
2022-12-23T20:44:23.501Z,13.50
2022-12-23T20:47:13.724Z,13.70
2022-12-23T20:50:17.020Z,13.50
2022-12-23T20:53:20.165Z,13.60
2022-12-23T20:56:27.495Z,13.60
2022-12-23T20:59:33.161Z,13.60
2022-12-23T21:02:36.312Z,13.40
2022-12-23T21:05:39.938Z,13.50
2022-12-23T21:08:43.415Z,13.60
2022-12-23T21:11:48.518Z,13.50
2022-12-23T21:14:52.966Z,13.40
2022-12-23T21:17:56.067Z,13.30
2022-12-23T21:21:00.971Z,13.20
2022-12-23T21:24:05.320Z,13.30
2022-12-23T21:27:08.448Z,13.30
2022-12-23T21:30:13.981Z,13.20
2022-12-23T21:33:17.059Z,12.90
2022-12-23T21:36:22.398Z,12.90
2022-12-23T21:39:25.997Z,12.80
2022-12-23T21:42:29.220Z,12.60
2022-12-23T21:45:33.650Z,12.50
2022-12-23T21:48:38.316Z,12.30
2022-12-23T21:51:42.249Z,12.20
2022-12-23T21:54:45.536Z,12.30
2022-12-23T21:57:48.642Z,12.10
2022-12-23T22:00:53.194Z,12.30
2022-12-23T22:03:57.799Z,12.30
2022-12-23T22:07:00.738Z,12.30
2022-12-23T22:10:03.881Z,12.40
2022-12-23T22:13:07.194Z,12.50
2022-12-23T22:16:13.062Z,12.60
2022-12-23T22:19:16.547Z,12.70
2022-12-23T22:22:19.547Z,12.70
2022-12-23T22:25:23.210Z,12.70
2022-12-23T22:28:26.428Z,12.70
2022-12-23T22:31:35.455Z,12.70
2022-12-23T22:34:38.615Z,12.80
2022-12-23T22:37:41.777Z,12.70
2022-12-23T22:40:49.546Z,12.80
2022-12-23T22:43:52.667Z,12.80
2022-12-23T22:46:57.256Z,12.80
2022-12-23T22:50:00.534Z,12.70
2022-12-23T22:53:03.648Z,12.70
2022-12-23T22:56:07.959Z,12.60
2022-12-23T22:59:22.997Z,12.70
2022-12-23T23:02:28.548Z,12.60
2022-12-23T23:05:31.801Z,12.50
2022-12-23T23:08:35.745Z,12.60
2022-12-23T23:11:39.102Z,12.70
2022-12-23T23:14:54.731Z,12.80
2022-12-23T23:17:59.290Z,12.70
2022-12-23T23:21:02.950Z,12.70
2022-12-23T23:24:06.747Z,12.80
2022-12-23T23:27:10.221Z,12.90
2022-12-23T23:30:14.000Z,12.90
2022-12-23T23:33:18.531Z,13.00
2022-12-23T23:36:21.769Z,13.00
2022-12-23T23:39:24.638Z,12.90
2022-12-23T23:42:27.527Z,12.80
2022-12-23T23:45:30.677Z,12.90
2022-12-23T23:48:34.907Z,12.90
2022-12-23T23:51:37.886Z,12.80
2022-12-23T23:54:40.715Z,12.90
2022-12-23T23:57:43.573Z,13.00
